Time;durP1;ratioP1;P1;durP2;ratioP2;P2;SDS_P1;SDS_P2;PMS_P1;PMS_P2;Temp;Humidity;BMP_temperature;BMP_pressure;BME280_temperature;BME280_humidity;BME280_pressure;Samples;Min_cycle;Max_cycle;Signal;HPM_P1;HPM_P2
2022/08/11 00:00:11;;;;;;;4.75;2.45;;;;;;;;;;5020362;28;20108;-65
2022/08/11 00:02:40;;;;;;;5.45;2.40;;;;;;;;;;5025476;28;20057;-65
2022/08/11 00:05:10;;;;;;;7.55;2.70;;;;;;;;;;5030050;28;20120;-65
2022/08/11 00:07:44;;;;;;;5.57;2.65;;;;;;;;;;5031163;28;20087;-65
2022/08/11 00:10:14;;;;;;;4.85;2.45;;;;;;;;;;5029028;28;20057;-65
2022/08/11 00:12:41;;;;;;;5.10;2.83;;;;;;;;;;5030459;28;20018;-65
2022/08/11 00:15:08;;;;;;;9.63;2.92;;;;;;;;;;5026661;28;20543;-65
2022/08/11 00:17:33;;;;;;;7.65;2.92;;;;;;;;;;5030994;28;20035;-65
2022/08/11 00:20:07;;;;;;;11.43;3.03;;;;;;;;;;5026964;28;20034;-65
2022/08/11 00:22:33;;;;;;;7.70;3.53;;;;;;;;;;5030029;28;20097;-65
2022/08/11 00:25:00;;;;;;;5.35;2.70;;;;;;;;;;5028479;28;20029;-65
2022/08/11 00:27:30;;;;;;;5.65;2.60;;;;;;;;;;5026560;28;20021;-65
2022/08/11 00:29:56;;;;;;;8.80;2.83;;;;;;;;;;5022733;28;20377;-65
2022/08/11 00:32:22;;;;;;;4.32;2.67;;;;;;;;;;5025100;28;20029;-65
2022/08/11 00:34:47;;;;;;;6.65;3.25;;;;;;;;;;5024413;28;20109;-65
2022/08/11 00:37:18;;;;;;;6.70;3.00;;;;;;;;;;5017362;28;20114;-65
2022/08/11 00:39:45;;;;;;;8.70;3.00;;;;;;;;;;5035061;28;20040;-65
2022/08/11 00:42:10;;;;;;;6.07;3.15;;;;;;;;;;5026224;28;20132;-65
2022/08/11 00:44:55;;;;;;;9.93;3.25;;;;;;;;;;5026854;28;20132;-65
2022/08/11 00:47:40;;;;;;;4.97;3.17;;;;;;;;;;5031036;28;20021;-65
2022/08/11 00:50:26;;;;;;;6.00;2.95;;;;;;;;;;5021138;28;20034;-65
2022/08/11 00:53:11;;;;;;;7.43;3.33;;;;;;;;;;5024490;28;20449;-65
2022/08/11 00:55:39;;;;;;;5.93;3.22;;;;;;;;;;5033177;28;20083;-65
2022/08/11 00:58:04;;;;;;;7.32;3.58;;;;;;;;;;5033469;28;20029;-65
2022/08/11 01:00:33;;;;;;;6.95;3.70;;;;;;;;;;5032828;28;20440;-65
2022/08/11 01:03:12;;;;;;;5.78;3.47;;;;;;;;;;5031455;28;20462;-65
2022/08/11 01:05:47;;;;;;;5.85;3.85;;;;;;;;;;5026745;28;20536;-65
2022/08/11 01:08:39;;;;;;;7.65;3.28;;;;;;;;;;5014563;28;20373;-64
2022/08/11 01:11:13;;;;;;;9.95;3.75;;;;;;;;;;5032690;28;20029;-65
2022/08/11 01:13:46;;;;;;;5.53;3.70;;;;;;;;;;5033161;28;20028;-65
2022/08/11 01:16:22;;;;;;;6.65;3.75;;;;;;;;;;5031784;28;20408;-65
2022/08/11 01:18:47;;;;;;;7.35;3.97;;;;;;;;;;5029913;28;20113;-65
2022/08/11 01:21:31;;;;;;;7.28;3.58;;;;;;;;;;5033247;28;20044;-65
2022/08/11 01:24:14;;;;;;;7.85;4.05;;;;;;;;;;5023119;28;20033;-65
2022/08/11 01:26:43;;;;;;;8.00;4.05;;;;;;;;;;5033269;28;20083;-65
2022/08/11 01:29:27;;;;;;;7.07;3.70;;;;;;;;;;5032507;28;20025;-65
2022/08/11 01:31:59;;;;;;;6.97;4.18;;;;;;;;;;5031952;28;20074;-64
2022/08/11 01:34:43;;;;;;;6.95;3.80;;;;;;;;;;5032924;28;20021;-65
2022/08/11 01:37:11;;;;;;;9.07;3.85;;;;;;;;;;5034773;28;20108;-65
2022/08/11 01:39:45;;;;;;;10.65;3.63;;;;;;;;;;5032249;28;20508;-65
2022/08/11 01:45:13;;;;;;;8.15;3.50;;;;;;;;;;5023603;28;20083;-65
2022/08/11 01:47:52;;;;;;;7.20;4.20;;;;;;;;;;5030795;28;20026;-65
2022/08/11 01:50:24;;;;;;;8.80;3.90;;;;;;;;;;5024738;28;20462;-65
2022/08/11 01:53:08;;;;;;;8.90;4.13;;;;;;;;;;5033795;28;20108;-65
2022/08/11 01:55:46;;;;;;;6.95;4.13;;;;;;;;;;5028066;28;20559;-65
2022/08/11 01:58:34;;;;;;;6.63;4.00;;;;;;;;;;5014032;28;20081;-65
2022/08/11 02:00:59;;;;;;;8.03;4.47;;;;;;;;;;5025282;28;20045;-65
2022/08/11 02:03:38;;;;;;;9.68;4.70;;;;;;;;;;5030955;28;20252;-64
2022/08/11 02:06:53;;;;;;;8.90;4.75;;;;;;;;;;5024543;28;20038;-65
2022/08/11 02:08:54;;;;;;;7.45;4.50;;;;;;;;;;5015083;28;20025;-65
2022/08/11 02:11:30;;;;;;;6.80;4.65;;;;;;;;;;5023237;28;20493;-65
2022/08/11 02:14:01;;;;;;;7.13;4.25;;;;;;;;;;5016377;28;20540;-65
2022/08/11 02:16:41;;;;;;;8.88;4.55;;;;;;;;;;5031536;28;20024;-65
2022/08/11 02:25:08;;;;;;;7.50;4.50;;;;;;;;;;5024918;28;20129;-65
2022/08/11 02:27:46;;;;;;;6.57;4.28;;;;;;;;;;5021883;28;20478;-65
2022/08/11 02:30:15;;;;;;;10.23;4.57;;;;;;;;;;5031342;28;20049;-65
2022/08/11 02:35:26;;;;;;;9.23;4.73;;;;;;;;;;5023208;28;20083;-65
2022/08/11 02:37:52;;;;;;;11.67;5.27;;;;;;;;;;5027120;28;20030;-65
2022/08/11 02:40:33;;;;;;;12.07;4.80;;;;;;;;;;5024327;28;20477;-65
2022/08/11 02:43:08;;;;;;;11.65;4.93;;;;;;;;;;5032188;28;20048;-65
2022/08/11 02:45:46;;;;;;;10.10;4.50;;;;;;;;;;5030308;28;20025;-64
2022/08/11 02:51:14;;;;;;;9.07;4.77;;;;;;;;;;5030262;28;20397;-64
2022/08/11 02:53:59;;;;;;;12.73;4.90;;;;;;;;;;5029604;28;20087;-65
2022/08/11 02:56:25;;;;;;;9.07;4.53;;;;;;;;;;5020701;28;20045;-65
2022/08/11 02:59:49;;;;;;;8.93;4.77;;;;;;;;;;5025128;28;20480;-65
2022/08/11 03:01:58;;;;;;;8.40;4.60;;;;;;;;;;5031912;28;20022;-65
2022/08/11 03:04:36;;;;;;;9.07;4.93;;;;;;;;;;5027434;28;20040;-65
2022/08/11 03:07:07;;;;;;;8.87;4.70;;;;;;;;;;5031495;28;20029;-65
2022/08/11 03:09:51;;;;;;;7.75;4.70;;;;;;;;;;5028594;28;20021;-64
2022/08/11 03:18:16;;;;;;;8.70;4.50;;;;;;;;;;5018394;28;20101;-65
2022/08/11 03:20:45;;;;;;;7.23;3.93;;;;;;;;;;5026575;28;20021;-65
2022/08/11 03:23:10;;;;;;;7.60;4.10;;;;;;;;;;5029783;28;20108;-65
2022/08/11 03:25:35;;;;;;;7.73;4.87;;;;;;;;;;5024225;28;20549;-64
2022/08/11 03:28:13;;;;;;;12.33;4.80;;;;;;;;;;5029266;28;20022;-65
2022/08/11 03:30:42;;;;;;;9.33;4.80;;;;;;;;;;5027199;28;20162;-65
2022/08/11 03:36:35;;;;;;;10.43;4.67;;;;;;;;;;5027963;28;20124;-64
2022/08/11 03:39:09;;;;;;;10.97;4.70;;;;;;;;;;5017900;28;20029;-65
2022/08/11 03:41:43;;;;;;;12.20;4.73;;;;;;;;;;5030869;28;20453;-64
2022/08/11 03:44:22;;;;;;;10.00;4.70;;;;;;;;;;5024491;28;20393;-65
2022/08/11 03:46:53;;;;;;;8.63;4.60;;;;;;;;;;5029530;28;20022;-65
2022/08/11 03:49:26;;;;;;;12.20;5.05;;;;;;;;;;5023070;28;20045;-65
2022/08/11 03:51:58;;;;;;;11.67;4.90;;;;;;;;;;5015075;28;20063;-65
2022/08/11 03:54:32;;;;;;;10.00;4.43;;;;;;;;;;5026558;28;20370;-65
2022/08/11 03:57:07;;;;;;;8.47;4.30;;;;;;;;;;5011609;28;20032;-66
2022/08/11 03:59:52;;;;;;;10.37;4.60;;;;;;;;;;5024888;28;20025;-65
2022/08/11 04:02:17;;;;;;;7.27;4.00;;;;;;;;;;5024455;28;20021;-65
2022/08/11 04:04:57;;;;;;;11.75;4.93;;;;;;;;;;5030092;28;20082;-65
2022/08/11 04:07:25;;;;;;;8.70;5.07;;;;;;;;;;5039040;28;20440;-65
2022/08/11 04:10:08;;;;;;;16.67;5.00;;;;;;;;;;5038340;28;20421;-65
2022/08/11 04:12:45;;;;;;;10.73;4.23;;;;;;;;;;5029083;28;20029;-65
2022/08/11 04:18:04;;;;;;;8.50;4.53;;;;;;;;;;5029290;28;20044;-65
2022/08/11 04:20:48;;;;;;;9.57;4.83;;;;;;;;;;5029279;28;20470;-65
2022/08/11 04:23:23;;;;;;;12.57;4.50;;;;;;;;;;5035969;28;20374;-65
2022/08/11 04:26:11;;;;;;;8.40;4.53;;;;;;;;;;5033393;28;20025;-65
2022/08/11 04:28:55;;;;;;;9.43;4.47;;;;;;;;;;5005908;28;20092;-65
2022/08/11 04:31:36;;;;;;;8.17;4.90;;;;;;;;;;5030025;28;20022;-65
2022/08/11 04:34:13;;;;;;;10.23;5.43;;;;;;;;;;5026702;28;20022;-65
2022/08/11 04:39:57;;;;;;;10.53;5.00;;;;;;;;;;5032370;28;20047;-65
2022/08/11 04:45:33;;;;;;;8.13;4.47;;;;;;;;;;5025303;28;20125;-65
2022/08/11 05:02:34;;;;;;;6.40;3.05;;;;;;;;;;5032793;28;20060;-66
2022/08/11 05:05:30;;;;;;;6.22;3.05;;;;;;;;;;5032982;28;20075;-66
2022/08/11 05:08:04;;;;;;;7.45;2.90;;;;;;;;;;5033475;28;20083;-66
2022/08/11 05:10:44;;;;;;;8.32;3.22;;;;;;;;;;5033124;28;20021;-66
2022/08/11 05:35:46;;;;;;;6.57;3.00;;;;;;;;;;5032989;28;20112;-66
2022/08/11 05:57:27;;;;;;;6.72;2.90;;;;;;;;;;5032720;28;20574;-66
2022/08/11 05:59:57;;;;;;;6.15;2.72;;;;;;;;;;5032517;28;20025;-66
2022/08/11 06:02:23;;;;;;;5.22;2.80;;;;;;;;;;5032782;28;20022;-66
2022/08/11 06:04:55;;;;;;;9.90;2.85;;;;;;;;;;5032470;28;20094;-67
2022/08/11 06:07:25;;;;;;;4.85;2.60;;;;;;;;;;5032731;28;20021;-66
2022/08/11 06:09:51;;;;;;;4.82;2.58;;;;;;;;;;5032132;28;20100;-66
2022/08/11 06:12:20;;;;;;;4.90;2.50;;;;;;;;;;5032574;28;20172;-66
2022/08/11 06:14:48;;;;;;;8.50;2.90;;;;;;;;;;5032195;28;20021;-66
2022/08/11 06:17:20;;;;;;;9.23;2.75;;;;;;;;;;5032194;28;20061;-66
2022/08/11 06:19:46;;;;;;;7.15;2.70;;;;;;;;;;5031984;28;20436;-66
2022/08/11 06:22:12;;;;;;;9.18;2.65;;;;;;;;;;5032347;28;20017;-66
2022/08/11 06:24:39;;;;;;;8.43;2.50;;;;;;;;;;5031553;28;20482;-66
2022/08/11 06:27:05;;;;;;;9.65;2.70;;;;;;;;;;5031406;28;20413;-66
2022/08/11 06:29:32;;;;;;;16.42;2.65;;;;;;;;;;5031672;28;20021;-66
2022/08/11 06:31:59;;;;;;;6.93;2.90;;;;;;;;;;5031921;28;20014;-66
2022/08/11 06:34:24;;;;;;;8.23;2.70;;;;;;;;;;5031468;28;20087;-66
2022/08/11 06:36:56;;;;;;;7.00;2.70;;;;;;;;;;5032184;28;20055;-66
2022/08/11 06:39:22;;;;;;;8.68;3.10;;;;;;;;;;5031787;28;20396;-66
2022/08/11 06:42:04;;;;;;;7.15;2.50;;;;;;;;;;5032080;28;20032;-66
2022/08/11 06:44:32;;;;;;;8.65;2.40;;;;;;;;;;5031736;28;20022;-66
2022/08/11 06:47:04;;;;;;;5.95;2.75;;;;;;;;;;5031605;28;20104;-66
2022/08/11 06:52:27;;;;;;;10.23;3.00;;;;;;;;;;5031950;28;20048;-66
2022/08/11 06:54:56;;;;;;;6.63;2.65;;;;;;;;;;5031519;28;20573;-66
2022/08/11 07:03:02;;;;;;;4.38;2.58;;;;;;;;;;5031631;28;20028;-66
2022/08/11 07:05:36;;;;;;;5.78;2.97;;;;;;;;;;5030683;28;20410;-66
2022/08/11 07:16:47;;;;;;;8.95;2.72;;;;;;;;;;5031559;28;20500;-66
2022/08/11 07:30:25;;;;;;;9.43;2.60;;;;;;;;;;5030942;28;20055;-66
2022/08/11 07:32:52;;;;;;;4.85;2.13;;;;;;;;;;5031150;28;20021;-66
2022/08/11 07:35:23;;;;;;;4.13;2.30;;;;;;;;;;5030954;28;20040;-66
2022/08/11 07:37:49;;;;;;;;;;;;;;;;;;5031804;28;20022;-66
2022/08/11 07:40:18;;;;;;;5.65;2.03;;;;;;;;;;5032446;28;19909;-67
2022/08/11 07:42:45;;;;;;;7.63;2.00;;;;;;;;;;5035117;28;20037;-66
2022/08/11 07:53:24;;;;;;;5.13;2.00;;;;;;;;;;5034681;28;20076;-66
2022/08/11 07:55:52;;;;;;;6.78;1.65;;;;;;;;;;5033730;28;20029;-66
2022/08/11 08:17:50;;;;;;;6.18;1.38;;;;;;;;;;5034506;28;20041;-67
2022/08/11 08:20:15;;;;;;;5.13;1.25;;;;;;;;;;5033793;28;20021;-66
2022/08/11 08:22:41;;;;;;;5.65;1.45;;;;;;;;;;5034621;28;20026;-66
2022/08/11 08:25:07;;;;;;;7.38;1.20;;;;;;;;;;5034234;28;20470;-67
2022/08/11 08:27:34;;;;;;;4.30;1.17;;;;;;;;;;5033901;28;20025;-67
2022/08/11 08:32:44;;;;;;;3.40;1.10;;;;;;;;;;5034376;28;20040;-66
2022/08/11 08:35:10;;;;;;;3.40;1.30;;;;;;;;;;5034003;28;20444;-67
2022/08/11 08:37:36;;;;;;;3.22;1.10;;;;;;;;;;5034528;28;20022;-67
2022/08/11 08:40:01;;;;;;;5.13;1.38;;;;;;;;;;5033788;28;20432;-66
2022/08/11 08:42:28;;;;;;;5.43;1.17;;;;;;;;;;5034212;28;20052;-66
2022/08/11 08:45:00;;;;;;;3.78;1.20;;;;;;;;;;5033583;28;20055;-66
2022/08/11 08:47:27;;;;;;;4.32;1.25;;;;;;;;;;5034023;28;20026;-67
2022/08/11 08:49:59;;;;;;;2.35;1.02;;;;;;;;;;5033567;28;20055;-67
2022/08/11 08:52:27;;;;;;;5.03;1.00;;;;;;;;;;5033546;28;20033;-66
2022/08/11 08:55:00;;;;;;;3.95;1.00;;;;;;;;;;5033753;28;20105;-67
2022/08/11 08:57:26;;;;;;;3.53;1.08;;;;;;;;;;5034032;28;20005;-67
2022/08/11 08:59:52;;;;;;;2.75;1.00;;;;;;;;;;5033672;28;20022;-66
2022/08/11 09:02:18;;;;;;;4.40;1.08;;;;;;;;;;5033920;28;20428;-67
2022/08/11 09:04:44;;;;;;;6.78;0.98;;;;;;;;;;5033594;28;20029;-66
2022/08/11 09:07:14;;;;;;;12.13;1.10;;;;;;;;;;5033252;28;20029;-67
2022/08/11 09:09:43;;;;;;;4.75;0.85;;;;;;;;;;5033070;28;20025;-67
2022/08/11 09:12:10;;;;;;;6.53;1.25;;;;;;;;;;5033180;28;20024;-67
2022/08/11 09:17:21;;;;;;;2.20;0.98;;;;;;;;;;5033452;28;20044;-66
2022/08/11 09:19:47;;;;;;;3.45;1.10;;;;;;;;;;5033384;28;20034;-67
2022/08/11 09:27:45;;;;;;;2.17;0.80;;;;;;;;;;5033135;28;20547;-65
2022/08/11 09:30:11;;;;;;;3.42;0.82;;;;;;;;;;5033166;28;20389;-66
2022/08/11 09:32:37;;;;;;;4.40;0.98;;;;;;;;;;5033186;28;20021;-66
2022/08/11 09:35:03;;;;;;;4.10;1.02;;;;;;;;;;5033042;28;20579;-66
2022/08/11 09:40:29;;;;;;;3.13;0.90;;;;;;;;;;5032700;28;20513;-66
2022/08/11 09:45:50;;;;;;;5.78;0.90;;;;;;;;;;5032487;28;20075;-67
2022/08/11 09:48:17;;;;;;;3.42;0.65;;;;;;;;;;5033136;28;20100;-67
2022/08/11 09:50:44;;;;;;;3.30;1.00;;;;;;;;;;5032503;28;20060;-67
2022/08/11 09:53:11;;;;;;;3.60;0.90;;;;;;;;;;5032656;28;20026;-67
2022/08/11 09:55:37;;;;;;;4.65;1.00;;;;;;;;;;5032386;28;20470;-67
2022/08/11 09:58:17;;;;;;;6.85;1.20;;;;;;;;;;5032932;28;20518;-66
2022/08/11 10:00:44;;;;;;;2.88;0.98;;;;;;;;;;5032684;28;20022;-67
2022/08/11 10:03:11;;;;;;;3.47;0.90;;;;;;;;;;5031851;28;20026;-66
2022/08/11 10:08:25;;;;;;;4.32;0.85;;;;;;;;;;5032618;28;20061;-66
2022/08/11 10:10:50;;;;;;;3.55;0.73;;;;;;;;;;5032213;28;20017;-68
2022/08/11 10:13:17;;;;;;;2.15;0.80;;;;;;;;;;5032430;28;20017;-67
2022/08/11 10:15:45;;;;;;;2.03;0.70;;;;;;;;;;5032334;28;20167;-66
2022/08/11 10:21:08;;;;;;;2.40;0.85;;;;;;;;;;5032314;28;20055;-68
2022/08/11 10:33:58;;;;;;;4.95;0.80;;;;;;;;;;5032189;28;20200;-67
2022/08/11 10:34:34;;;;;;;2.28;0.90;;;;;;;;;;5031758;28;20083;-67
2022/08/11 10:37:01;;;;;;;3.83;0.85;;;;;;;;;;5031452;28;20583;-66
2022/08/11 10:39:27;;;;;;;3.08;0.90;;;;;;;;;;5031788;28;20017;-67
2022/08/11 10:44:45;;;;;;;2.20;0.90;;;;;;;;;;5031745;28;20079;-66
2022/08/11 11:00:55;;;;;;;1.88;0.80;;;;;;;;;;5030977;28;20036;-63
2022/08/11 11:03:21;;;;;;;3.85;0.88;;;;;;;;;;5031545;28;20030;-65
2022/08/11 11:05:47;;;;;;;3.45;0.70;;;;;;;;;;5030975;28;20465;-64
2022/08/11 11:10:58;;;;;;;2.08;0.77;;;;;;;;;;5031123;28;20028;-64
2022/08/11 11:18:52;;;;;;;2.20;0.82;;;;;;;;;;5030885;28;20083;-64
2022/08/11 11:21:19;;;;;;;5.50;1.00;;;;;;;;;;5031100;28;20033;-64
2022/08/11 11:23:53;;;;;;;3.92;0.80;;;;;;;;;;5031359;28;20359;-65
2022/08/11 11:26:40;;;;;;;3.97;0.82;;;;;;;;;;5031005;28;20115;-66
2022/08/11 11:29:05;;;;;;;2.10;0.80;;;;;;;;;;5030902;28;20052;-65
2022/08/11 11:31:36;;;;;;;1.70;0.80;;;;;;;;;;5030961;28;20095;-65
2022/08/11 11:34:20;;;;;;;5.65;0.90;;;;;;;;;;5030730;28;20251;-66
2022/08/11 11:36:51;;;;;;;1.42;0.80;;;;;;;;;;5031157;28;20025;-67
2022/08/11 11:39:21;;;;;;;3.88;0.90;;;;;;;;;;5030912;28;20107;-66
2022/08/11 11:41:47;;;;;;;2.35;0.82;;;;;;;;;;5030765;28;20108;-66
2022/08/11 11:44:13;;;;;;;3.35;0.80;;;;;;;;;;5030638;28;20029;-66
2022/08/11 11:46:40;;;;;;;2.28;0.80;;;;;;;;;;5030890;28;20034;-66
2022/08/11 11:49:08;;;;;;;2.40;0.90;;;;;;;;;;5030766;28;20099;-68
2022/08/11 11:51:35;;;;;;;2.65;0.77;;;;;;;;;;5031047;28;20029;-66
2022/08/11 11:54:02;;;;;;;2.72;0.80;;;;;;;;;;5030523;28;20068;-66
2022/08/11 11:56:28;;;;;;;4.00;0.90;;;;;;;;;;5031021;28;20613;-66
2022/08/11 12:01:38;;;;;;;7.05;0.90;;;;;;;;;;5031454;28;20064;-66
2022/08/11 12:04:05;;;;;;;5.45;0.80;;;;;;;;;;5030464;28;20504;-66
2022/08/11 12:06:31;;;;;;;3.17;0.90;;;;;;;;;;5031019;28;20026;-66
2022/08/11 12:08:57;;;;;;;4.38;0.80;;;;;;;;;;5030872;28;20032;-66
2022/08/11 12:14:08;;;;;;;2.35;0.90;;;;;;;;;;5030641;28;20052;-66
2022/08/11 12:16:38;;;;;;;2.60;1.00;;;;;;;;;;5031102;28;20025;-66
2022/08/11 12:19:03;;;;;;;;;;;;;;;;;;5030666;28;20113;-66
2022/08/11 12:21:29;;;;;;;2.90;1.15;;;;;;;;;;5030988;28;20008;-67
2022/08/11 12:29:26;;;;;;;4.43;1.02;;;;;;;;;;5033971;28;20023;-66
2022/08/11 12:31:52;;;;;;;4.93;1.00;;;;;;;;;;5034137;28;20067;-66
2022/08/11 12:34:19;;;;;;;5.53;1.05;;;;;;;;;;5034147;28;20021;-66
2022/08/11 12:36:44;;;;;;;2.08;0.80;;;;;;;;;;5032894;28;20017;-67
2022/08/11 12:39:10;;;;;;;2.47;0.90;;;;;;;;;;5033773;28;20048;-66
2022/08/11 12:47:08;;;;;;;3.78;1.00;;;;;;;;;;5033769;28;20071;-67
2022/08/11 12:52:24;;;;;;;3.75;0.98;;;;;;;;;;5033753;28;20409;-66
2022/08/11 12:54:53;;;;;;;6.13;1.00;;;;;;;;;;5033425;28;20022;-66
2022/08/11 13:06:04;;;;;;;3.50;1.00;;;;;;;;;;5030278;28;20109;-66
2022/08/11 13:08:31;;;;;;;3.17;0.95;;;;;;;;;;5031172;28;20041;-66
2022/08/11 13:13:43;;;;;;;3.10;1.00;;;;;;;;;;5031327;28;20028;-66
2022/08/11 13:16:09;;;;;;;4.85;1.15;;;;;;;;;;5030918;28;20076;-66
2022/08/11 13:18:36;;;;;;;1.92;0.90;;;;;;;;;;5030619;28;20041;-66
2022/08/11 13:21:01;;;;;;;3.38;1.00;;;;;;;;;;5030806;28;20025;-66
2022/08/11 13:23:28;;;;;;;2.88;1.00;;;;;;;;;;5030988;28;20022;-66
2022/08/11 13:25:54;;;;;;;4.22;0.90;;;;;;;;;;5030373;28;20121;-66
2022/08/11 13:28:20;;;;;;;1.70;0.85;;;;;;;;;;5030690;28;20013;-66
2022/08/11 13:33:30;;;;;;;2.33;0.90;;;;;;;;;;5033080;28;20108;-68
2022/08/11 13:35:56;;;;;;;6.35;1.00;;;;;;;;;;5032964;28;20058;-66
2022/08/11 13:38:23;;;;;;;4.85;1.10;;;;;;;;;;5032295;28;20382;-66
2022/08/11 13:40:48;;;;;;;1.92;0.90;;;;;;;;;;5032767;28;20047;-65
2022/08/11 13:43:14;;;;;;;3.10;1.05;;;;;;;;;;5032853;28;20029;-66
2022/08/11 13:45:41;;;;;;;6.68;1.35;;;;;;;;;;5032866;28;20022;-66
2022/08/11 13:48:07;;;;;;;2.25;0.82;;;;;;;;;;5031510;28;20021;-66
2022/08/11 13:53:20;;;;;;;3.65;1.33;;;;;;;;;;5033047;28;20036;-66
2022/08/11 13:55:45;;;;;;;4.53;1.10;;;;;;;;;;5032630;28;20029;-66
2022/08/11 13:58:11;;;;;;;3.75;1.00;;;;;;;;;;5032849;28;20029;-66
2022/08/11 14:00:37;;;;;;;2.45;0.90;;;;;;;;;;5032324;28;20560;-66
2022/08/11 14:03:04;;;;;;;3.67;1.00;;;;;;;;;;5032903;28;20053;-66
2022/08/11 14:05:32;;;;;;;5.45;1.00;;;;;;;;;;5032116;28;20478;-66
2022/08/11 14:07:59;;;;;;;5.10;1.20;;;;;;;;;;5032627;28;20028;-66
2022/08/11 14:10:27;;;;;;;2.50;1.08;;;;;;;;;;5032188;28;20013;-66
2022/08/11 14:15:41;;;;;;;4.25;1.08;;;;;;;;;;5032078;28;20103;-66
2022/08/11 14:18:08;;;;;;;3.17;1.00;;;;;;;;;;5032182;28;20030;-65
2022/08/11 14:23:34;;;;;;;4.57;1.33;;;;;;;;;;5032280;28;20241;-65
2022/08/11 14:28:43;;;;;;;1.95;1.08;;;;;;;;;;5032164;28;20036;-66
2022/08/11 14:31:09;;;;;;;4.85;1.10;;;;;;;;;;5031462;28;20386;-65
2022/08/11 14:33:35;;;;;;;2.65;1.20;;;;;;;;;;5031757;28;20025;-66
2022/08/11 14:36:05;;;;;;;7.18;1.00;;;;;;;;;;5031509;28;20026;-65
2022/08/11 14:38:31;;;;;;;4.97;1.03;;;;;;;;;;5031644;28;20042;-66
2022/08/11 14:49:09;;;;;;;4.75;1.20;;;;;;;;;;5031036;28;20029;-65
2022/08/11 14:51:35;;;;;;;2.83;0.95;;;;;;;;;;5031844;28;20021;-66
2022/08/11 14:56:44;;;;;;;4.35;1.10;;;;;;;;;;5028811;28;20133;-66
2022/08/11 14:59:10;;;;;;;4.70;1.50;;;;;;;;;;5024207;28;20152;-66
2022/08/11 15:04:21;;;;;;;4.05;1.10;;;;;;;;;;5026012;28;20044;-65
2022/08/11 15:06:47;;;;;;;2.55;0.98;;;;;;;;;;5028964;28;20029;-66
2022/08/11 15:09:12;;;;;;;2.45;1.00;;;;;;;;;;5026485;28;20036;-66
2022/08/11 15:17:06;;;;;;;3.10;1.20;;;;;;;;;;5019336;28;20033;-65
2022/08/11 15:19:32;;;;;;;3.92;1.13;;;;;;;;;;5013227;28;20478;-65
2022/08/11 15:24:42;;;;;;;4.07;1.20;;;;;;;;;;5031435;28;20137;-67
2022/08/11 15:38:21;;;;;;;4.90;1.30;;;;;;;;;;5026923;28;20039;-66
2022/08/11 15:46:29;;;;;;;4.10;1.10;;;;;;;;;;5015076;28;20082;-66
2022/08/11 15:48:58;;;;;;;4.90;1.02;;;;;;;;;;5020202;28;20096;-66
2022/08/11 15:51:34;;;;;;;3.72;1.30;;;;;;;;;;5028997;28;20034;-65
2022/08/11 15:54:03;;;;;;;3.00;1.00;;;;;;;;;;5023978;28;20022;-65
2022/08/11 15:56:30;;;;;;;3.58;1.50;;;;;;;;;;5019550;28;20025;-65
2022/08/11 16:04:46;;;;;;;5.82;1.23;;;;;;;;;;5022297;28;20030;-65
2022/08/11 16:07:13;;;;;;;6.22;1.20;;;;;;;;;;5031372;28;20041;-65
2022/08/11 16:09:39;;;;;;;2.55;1.20;;;;;;;;;;5027860;28;20037;-65
2022/08/11 16:12:06;;;;;;;6.68;1.30;;;;;;;;;;5030390;28;20033;-65
2022/08/11 16:17:19;;;;;;;2.83;1.20;;;;;;;;;;5022495;28;20076;-66
2022/08/11 16:19:45;;;;;;;4.32;1.30;;;;;;;;;;5018378;28;20473;-65
2022/08/11 16:22:11;;;;;;;3.28;1.40;;;;;;;;;;5022711;28;20486;-65
2022/08/11 16:24:38;;;;;;;5.18;1.30;;;;;;;;;;5027635;28;20106;-65
2022/08/11 16:27:05;;;;;;;3.65;1.48;;;;;;;;;;5025681;28;20037;-65
2022/08/11 16:29:31;;;;;;;5.07;1.40;;;;;;;;;;5028973;28;20094;-65
2022/08/11 16:40:11;;;;;;;4.68;1.45;;;;;;;;;;5029046;28;20039;-65
2022/08/11 16:48:16;;;;;;;6.22;1.50;;;;;;;;;;5037679;28;20024;-66
2022/08/11 16:50:41;;;;;;;3.95;1.33;;;;;;;;;;5026734;28;20423;-66
2022/08/11 16:53:06;;;;;;;3.47;1.40;;;;;;;;;;5024810;28;20025;-66
2022/08/11 16:55:33;;;;;;;4.60;1.20;;;;;;;;;;5023030;28;20460;-66
2022/08/11 17:00:43;;;;;;;6.65;1.88;;;;;;;;;;5023314;28;20040;-66
2022/08/11 17:14:26;;;;;;;4.75;1.65;;;;;;;;;;5017449;28;20029;-65
2022/08/11 17:16:52;;;;;;;4.78;1.65;;;;;;;;;;5020479;28;20036;-65
2022/08/11 17:19:20;;;;;;;4.38;1.50;;;;;;;;;;5029691;28;20022;-66
2022/08/11 17:24:33;;;;;;;4.03;1.50;;;;;;;;;;5024502;28;20120;-65
2022/08/11 17:26:59;;;;;;;5.45;1.77;;;;;;;;;;5029800;28;20029;-65
2022/08/11 17:29:27;;;;;;;6.22;1.50;;;;;;;;;;5023631;28;20022;-65
2022/08/11 17:37:23;;;;;;;5.57;1.60;;;;;;;;;;5027825;28;20124;-65
2022/08/11 17:39:49;;;;;;;6.07;1.60;;;;;;;;;;5018352;28;20476;-65
2022/08/11 17:50:28;;;;;;;3.72;1.48;;;;;;;;;;5026045;28;20118;-65
2022/08/11 18:01:22;;;;;;;6.50;1.85;;;;;;;;;;5023599;28;20508;-65
2022/08/11 18:03:48;;;;;;;4.30;1.70;;;;;;;;;;5013288;28;20453;-66
2022/08/11 18:06:16;;;;;;;12.85;2.10;;;;;;;;;;5028907;28;20035;-65
